sensor_id;sensor_type;location;lat;lon;timestamp;pressure;altitude;pressure_sealevel;temperature;humidity
39435;BME280;66825;51.880;-0.518;2023-02-18T00:01:46;101263.13;;;16.55;48.38
39435;BME280;66825;51.880;-0.518;2023-02-18T00:04:13;101233.75;;;16.46;48.37
39435;BME280;66825;51.880;-0.518;2023-02-18T00:06:38;101250.63;;;16.54;48.24
39435;BME280;66825;51.880;-0.518;2023-02-18T00:09:05;101234.59;;;16.52;48.47
39435;BME280;66825;51.880;-0.518;2023-02-18T00:11:33;101148.94;;;15.98;48.57
39435;BME280;66825;51.880;-0.518;2023-02-18T00:14:00;101237.00;;;16.48;48.53
39435;BME280;66825;51.880;-0.518;2023-02-18T00:16:27;101232.94;;;16.51;48.46
39435;BME280;66825;51.880;-0.518;2023-02-18T00:18:55;101219.06;;;16.42;48.48
39435;BME280;66825;51.880;-0.518;2023-02-18T00:21:21;101227.75;;;16.49;48.74
39435;BME280;66825;51.880;-0.518;2023-02-18T00:23:46;101238.63;;;16.49;48.41
39435;BME280;66825;51.880;-0.518;2023-02-18T00:26:14;101229.97;;;16.47;48.63
39435;BME280;66825;51.880;-0.518;2023-02-18T00:28:40;101215.53;;;16.47;48.45
39435;BME280;66825;51.880;-0.518;2023-02-18T00:31:12;101227.50;;;16.46;48.62
39435;BME280;66825;51.880;-0.518;2023-02-18T00:33:40;101226.69;;;16.45;48.40
39435;BME280;66825;51.880;-0.518;2023-02-18T00:36:09;101221.25;;;16.45;48.67
39435;BME280;66825;51.880;-0.518;2023-02-18T00:38:35;101215.81;;;16.45;48.10
39435;BME280;66825;51.880;-0.518;2023-02-18T00:41:01;101200.06;;;16.32;48.23
39435;BME280;66825;51.880;-0.518;2023-02-18T00:43:27;101210.66;;;16.44;48.46
39435;BME280;66825;51.880;-0.518;2023-02-18T00:45:53;101178.28;;;16.27;48.61
39435;BME280;66825;51.880;-0.518;2023-02-18T00:48:18;101210.91;;;16.42;48.58
39435;BME280;66825;51.880;-0.518;2023-02-18T00:50:44;101210.09;;;16.42;48.47
39435;BME280;66825;51.880;-0.518;2023-02-18T00:53:10;101224.78;;;16.41;48.93
39435;BME280;66825;51.880;-0.518;2023-02-18T00:55:43;101227.50;;;16.41;48.58
39435;BME280;66825;51.880;-0.518;2023-02-18T00:58:10;101212.00;;;16.31;48.82
39435;BME280;66825;51.880;-0.518;2023-02-18T01:00:36;101227.22;;;16.37;48.93
39435;BME280;66825;51.880;-0.518;2023-02-18T01:03:02;101220.72;;;16.38;48.73
39435;BME280;66825;51.880;-0.518;2023-02-18T01:05:28;101135.59;;;15.81;48.89
39435;BME280;66825;51.880;-0.518;2023-02-18T01:07:54;101219.88;;;16.38;48.74
39435;BME280;66825;51.880;-0.518;2023-02-18T01:10:19;101213.91;;;16.35;48.74
39435;BME280;66825;51.880;-0.518;2023-02-18T01:12:45;101203.84;;;16.36;48.72
39435;BME280;66825;51.880;-0.518;2023-02-18T01:15:14;101188.06;;;16.28;48.57
39435;BME280;66825;51.880;-0.518;2023-02-18T01:17:40;101210.38;;;16.35;48.83
39435;BME280;66825;51.880;-0.518;2023-02-18T01:20:07;101199.78;;;16.33;48.81
39435;BME280;66825;51.880;-0.518;2023-02-18T01:22:32;101196.78;;;16.30;48.97
39435;BME280;66825;51.880;-0.518;2023-02-18T01:24:58;101199.78;;;16.33;48.78
39435;BME280;66825;51.880;-0.518;2023-02-18T01:27:23;101190.25;;;16.31;48.96
39435;BME280;66825;51.880;-0.518;2023-02-18T01:29:49;101192.97;;;16.31;48.51
39435;BME280;66825;51.880;-0.518;2023-02-18T01:32:14;101187.00;;;16.29;48.85
39435;BME280;66825;51.880;-0.518;2023-02-18T01:34:40;101180.19;;;16.26;48.92
39435;BME280;66825;51.880;-0.518;2023-02-18T01:37:05;101178.56;;;16.25;48.77
39435;BME280;66825;51.880;-0.518;2023-02-18T01:39:31;101190.00;;;16.27;48.79
39435;BME280;66825;51.880;-0.518;2023-02-18T01:41:56;101186.44;;;16.27;48.88
39435;BME280;66825;51.880;-0.518;2023-02-18T01:44:26;101183.72;;;16.27;48.65
39435;BME280;66825;51.880;-0.518;2023-02-18T01:46:52;101193.78;;;16.26;48.92
39435;BME280;66825;51.880;-0.518;2023-02-18T01:49:23;101176.66;;;16.20;48.82
39435;BME280;66825;51.880;-0.518;2023-02-18T01:52:03;101183.19;;;16.25;48.85
39435;BME280;66825;51.880;-0.518;2023-02-18T01:54:34;101079.09;;;15.67;48.92
39435;BME280;66825;51.880;-0.518;2023-02-18T01:59:40;101167.13;;;16.23;48.69
39435;BME280;66825;51.880;-0.518;2023-02-18T02:02:10;101138.34;;;16.22;48.80
39435;BME280;66825;51.880;-0.518;2023-02-18T02:04:37;101136.72;;;16.21;48.81
39435;BME280;66825;51.880;-0.518;2023-02-18T02:07:03;101144.84;;;16.16;48.50
39435;BME280;66825;51.880;-0.518;2023-02-18T02:09:30;101130.72;;;16.19;48.90
39435;BME280;66825;51.880;-0.518;2023-02-18T02:28:22;101116.06;;;16.15;48.77
39435;BME280;66825;51.880;-0.518;2023-02-18T02:36:54;101101.91;;;16.13;48.47
39435;BME280;66825;51.880;-0.518;2023-02-18T02:39:34;101090.50;;;16.11;49.05
39435;BME280;66825;51.880;-0.518;2023-02-18T02:42:07;101084.25;;;16.10;48.59
39435;BME280;66825;51.880;-0.518;2023-02-18T02:44:48;101101.38;;;16.11;48.68
39435;BME280;66825;51.880;-0.518;2023-02-18T02:47:23;101089.94;;;16.09;48.49
39435;BME280;66825;51.880;-0.518;2023-02-18T02:52:26;101094.59;;;16.08;48.84
39435;BME280;66825;51.880;-0.518;2023-02-18T02:54:55;101103.53;;;16.09;48.66
39435;BME280;66825;51.880;-0.518;2023-02-18T02:59:53;101083.47;;;15.99;48.69
39435;BME280;66825;51.880;-0.518;2023-02-18T03:02:40;101061.72;;;15.89;48.80
39435;BME280;66825;51.880;-0.518;2023-02-18T03:08:20;101079.63;;;16.06;48.63
39435;BME280;66825;51.880;-0.518;2023-02-18T03:10:44;101086.16;;;16.04;48.77
39435;BME280;66825;51.880;-0.518;2023-02-18T03:13:36;101058.19;;;16.04;48.52
39435;BME280;66825;51.880;-0.518;2023-02-18T03:19:05;101051.13;;;16.03;48.48
39435;BME280;66825;51.880;-0.518;2023-02-18T03:21:40;101051.38;;;16.01;48.68
39435;BME280;66825;51.880;-0.518;2023-02-18T03:24:09;101042.41;;;16.01;48.48
39435;BME280;66825;51.880;-0.518;2023-02-18T03:26:40;101044.31;;;16.00;48.63
39435;BME280;66825;51.880;-0.518;2023-02-18T03:29:07;101033.47;;;16.00;48.63
39435;BME280;66825;51.880;-0.518;2023-02-18T03:31:36;101032.63;;;16.00;48.59
39435;BME280;66825;51.880;-0.518;2023-02-18T03:34:14;101033.72;;;15.99;48.54
39435;BME280;66825;51.880;-0.518;2023-02-18T03:36:42;100931.66;;;15.25;48.63
39435;BME280;66825;51.880;-0.518;2023-02-18T03:39:14;101035.91;;;15.97;48.41
39435;BME280;66825;51.880;-0.518;2023-02-18T03:41:42;101032.91;;;15.98;48.53
39435;BME280;66825;51.880;-0.518;2023-02-18T03:44:09;101001.13;;;15.78;48.43
39435;BME280;66825;51.880;-0.518;2023-02-18T03:46:36;101029.63;;;15.96;48.34
39435;BME280;66825;51.880;-0.518;2023-02-18T03:49:02;101001.38;;;15.82;48.18
39435;BME280;66825;51.880;-0.518;2023-02-18T03:51:29;100906.94;;;15.37;48.26
39435;BME280;66825;51.880;-0.518;2023-02-18T03:53:54;100899.34;;;15.29;48.41
39435;BME280;66825;51.880;-0.518;2023-02-18T03:56:20;100967.44;;;15.79;48.21
39435;BME280;66825;51.880;-0.518;2023-02-18T03:58:45;100972.63;;;15.86;48.27
39435;BME280;66825;51.880;-0.518;2023-02-18T04:01:11;100997.59;;;15.93;48.40
39435;BME280;66825;51.880;-0.518;2023-02-18T04:03:37;100984.81;;;15.94;48.28
39435;BME280;66825;51.880;-0.518;2023-02-18T04:06:02;100971.50;;;15.92;48.17
39435;BME280;66825;51.880;-0.518;2023-02-18T04:08:28;100964.44;;;15.91;48.40
39435;BME280;66825;51.880;-0.518;2023-02-18T04:10:53;100969.91;;;15.86;48.04
39435;BME280;66825;51.880;-0.518;2023-02-18T04:13:19;100953.28;;;15.77;48.47
39435;BME280;66825;51.880;-0.518;2023-02-18T04:15:44;100967.44;;;15.90;48.20
39435;BME280;66825;51.880;-0.518;2023-02-18T04:18:10;100972.03;;;15.89;48.08
39435;BME280;66825;51.880;-0.518;2023-02-18T04:20:36;100972.03;;;15.89;48.28
39435;BME280;66825;51.880;-0.518;2023-02-18T04:23:02;100963.91;;;15.84;48.15
39435;BME280;66825;51.880;-0.518;2023-02-18T04:25:28;100985.91;;;15.87;48.27
39435;BME280;66825;51.880;-0.518;2023-02-18T04:27:53;100970.69;;;15.81;48.46
39435;BME280;66825;51.880;-0.518;2023-02-18T04:30:19;100995.97;;;15.87;48.20
39435;BME280;66825;51.880;-0.518;2023-02-18T04:32:45;100981.56;;;15.86;48.14
39435;BME280;66825;51.880;-0.518;2023-02-18T04:35:10;100954.38;;;15.81;48.34
39435;BME280;66825;51.880;-0.518;2023-02-18T04:37:36;100976.13;;;15.86;48.23
39435;BME280;66825;51.880;-0.518;2023-02-18T04:40:01;100909.91;;;15.46;48.15
39435;BME280;66825;51.880;-0.518;2023-02-18T04:42:27;100970.97;;;15.85;48.07
39435;BME280;66825;51.880;-0.518;2023-02-18T04:44:52;100944.59;;;15.75;47.82
39435;BME280;66825;51.880;-0.518;2023-02-18T04:47:18;100856.22;;;15.12;48.19
39435;BME280;66825;51.880;-0.518;2023-02-18T04:49:43;100965.00;;;15.83;47.90
39435;BME280;66825;51.880;-0.518;2023-02-18T04:52:09;100964.13;;;15.82;48.04
39435;BME280;66825;51.880;-0.518;2023-02-18T04:54:34;100941.34;;;15.68;48.22
39435;BME280;66825;51.880;-0.518;2023-02-18T04:57:00;100976.66;;;15.78;48.08
39435;BME280;66825;51.880;-0.518;2023-02-18T04:59:25;100975.56;;;15.79;48.00
39435;BME280;66825;51.880;-0.518;2023-02-18T05:01:51;100971.22;;;15.78;48.12
39435;BME280;66825;51.880;-0.518;2023-02-18T05:04:16;100971.22;;;15.78;48.01
39435;BME280;66825;51.880;-0.518;2023-02-18T05:06:42;100970.44;;;15.78;48.03
39435;BME280;66825;51.880;-0.518;2023-02-18T05:09:09;100991.34;;;15.77;48.25
39435;BME280;66825;51.880;-0.518;2023-02-18T05:11:35;100955.53;;;15.60;48.12
39435;BME280;66825;51.880;-0.518;2023-02-18T05:14:00;100928.38;;;15.44;48.15
39435;BME280;66825;51.880;-0.518;2023-02-18T05:16:25;100986.19;;;15.76;48.07
39435;BME280;66825;51.880;-0.518;2023-02-18T05:18:51;100967.19;;;15.60;47.86
39435;BME280;66825;51.880;-0.518;2023-02-18T05:21:17;100896.91;;;15.17;47.99
39435;BME280;66825;51.880;-0.518;2023-02-18T05:23:42;100977.47;;;15.73;48.13
39435;BME280;66825;51.880;-0.518;2023-02-18T05:26:08;100954.41;;;15.61;47.93
39435;BME280;66825;51.880;-0.518;2023-02-18T05:28:33;100971.25;;;15.73;48.02
39435;BME280;66825;51.880;-0.518;2023-02-18T05:30:59;100895.53;;;15.35;48.03
39435;BME280;66825;51.880;-0.518;2023-02-18T05:33:24;100955.78;;;15.68;48.22
39435;BME280;66825;51.880;-0.518;2023-02-18T05:35:50;100972.88;;;15.69;47.96
39435;BME280;66825;51.880;-0.518;2023-02-18T05:38:15;100749.88;;;14.38;47.97
39435;BME280;66825;51.880;-0.518;2023-02-18T05:40:41;100955.47;;;15.70;48.18
39435;BME280;66825;51.880;-0.518;2023-02-18T05:43:06;100944.91;;;15.63;47.85
39435;BME280;66825;51.880;-0.518;2023-02-18T05:45:31;100892.81;;;15.35;47.83
39435;BME280;66825;51.880;-0.518;2023-02-18T05:47:57;100960.13;;;15.69;47.77
39435;BME280;66825;51.880;-0.518;2023-02-18T05:50:22;100959.28;;;15.69;48.00
39435;BME280;66825;51.880;-0.518;2023-02-18T05:52:48;100954.94;;;15.68;48.06
39435;BME280;66825;51.880;-0.518;2023-02-18T05:55:14;100956.84;;;15.67;47.93
39435;BME280;66825;51.880;-0.518;2023-02-18T05:57:39;100946.28;;;15.66;47.98
39435;BME280;66825;51.880;-0.518;2023-02-18T06:00:05;100935.41;;;15.66;48.34
39435;BME280;66825;51.880;-0.518;2023-02-18T06:02:32;100951.16;;;15.59;47.99
39435;BME280;66825;51.880;-0.518;2023-02-18T06:04:58;100931.06;;;15.65;47.85
39435;BME280;66825;51.880;-0.518;2023-02-18T06:07:23;100941.94;;;15.65;48.24
39435;BME280;66825;51.880;-0.518;2023-02-18T06:09:49;100836.13;;;15.03;47.79
39435;BME280;66825;51.880;-0.518;2023-02-18T06:12:14;100933.22;;;15.63;48.31
39435;BME280;66825;51.880;-0.518;2023-02-18T06:14:40;100927.78;;;15.63;48.09
39435;BME280;66825;51.880;-0.518;2023-02-18T06:17:11;100910.44;;;15.48;48.03
39435;BME280;66825;51.880;-0.518;2023-02-18T06:19:37;100925.38;;;15.56;48.24
39435;BME280;66825;51.880;-0.518;2023-02-18T06:22:03;100957.66;;;15.63;48.27
39435;BME280;66825;51.880;-0.518;2023-02-18T06:24:28;100945.19;;;15.62;48.11
39435;BME280;66825;51.880;-0.518;2023-02-18T06:26:54;100897.41;;;15.40;48.25
39435;BME280;66825;51.880;-0.518;2023-02-18T06:29:19;100937.84;;;15.62;48.25
39435;BME280;66825;51.880;-0.518;2023-02-18T06:31:45;100929.44;;;15.53;48.25
39435;BME280;66825;51.880;-0.518;2023-02-18T06:34:10;100891.22;;;15.24;48.34
39435;BME280;66825;51.880;-0.518;2023-02-18T06:36:36;100941.09;;;15.59;48.41
39435;BME280;66825;51.880;-0.518;2023-02-18T06:39:03;100828.00;;;14.87;48.45
39435;BME280;66825;51.880;-0.518;2023-02-18T06:41:29;100931.91;;;15.55;48.45
39435;BME280;66825;51.880;-0.518;2023-02-18T06:43:54;100947.91;;;15.56;48.59
39435;BME280;66825;51.880;-0.518;2023-02-18T06:46:20;100941.94;;;15.54;48.80
39435;BME280;66825;51.880;-0.518;2023-02-18T06:48:45;100962.28;;;15.57;48.53
39435;BME280;66825;51.880;-0.518;2023-02-18T06:51:11;100972.34;;;15.56;48.61
39435;BME280;66825;51.880;-0.518;2023-02-18T06:53:36;100968.84;;;15.56;48.61
39435;BME280;66825;51.880;-0.518;2023-02-18T06:56:02;100979.69;;;15.56;48.61
39435;BME280;66825;51.880;-0.518;2023-02-18T06:58:27;100964.75;;;15.53;48.43
39435;BME280;66825;51.880;-0.518;2023-02-18T07:00:53;100875.22;;;14.97;48.38
39435;BME280;66825;51.880;-0.518;2023-02-18T07:03:18;100962.03;;;15.48;48.60
39435;BME280;66825;51.880;-0.518;2023-02-18T07:05:44;100968.28;;;15.54;48.46
39435;BME280;66825;51.880;-0.518;2023-02-18T07:08:10;100972.63;;;15.55;48.21
39435;BME280;66825;51.880;-0.518;2023-02-18T07:10:36;100961.78;;;15.55;48.38
39435;BME280;66825;51.880;-0.518;2023-02-18T07:13:02;100974.53;;;15.54;48.76
39435;BME280;66825;51.880;-0.518;2023-02-18T07:15:28;100970.16;;;15.53;48.54
39435;BME280;66825;51.880;-0.518;2023-02-18T07:17:54;100983.75;;;15.53;48.53
39435;BME280;66825;51.880;-0.518;2023-02-18T07:20:20;100998.16;;;15.54;48.50
39435;BME280;66825;51.880;-0.518;2023-02-18T07:22:45;100970.44;;;15.52;48.72
39435;BME280;66825;51.880;-0.518;2023-02-18T07:25:11;100969.66;;;15.51;48.47
39435;BME280;66825;51.880;-0.518;2023-02-18T07:27:37;100985.13;;;15.51;48.74
39435;BME280;66825;51.880;-0.518;2023-02-18T07:30:03;100920.78;;;15.25;48.65
39435;BME280;66825;51.880;-0.518;2023-02-18T07:32:28;100961.50;;;15.51;48.68
39435;BME280;66825;51.880;-0.518;2023-02-18T07:34:54;100883.34;;;14.91;48.68
39435;BME280;66825;51.880;-0.518;2023-02-18T07:37:20;100978.88;;;15.50;48.48
39435;BME280;66825;51.880;-0.518;2023-02-18T07:39:45;100973.44;;;15.50;48.68
39435;BME280;66825;51.880;-0.518;2023-02-18T07:42:11;100984.31;;;15.50;48.55
39435;BME280;66825;51.880;-0.518;2023-02-18T07:44:38;100983.47;;;15.50;48.31
39435;BME280;66825;51.880;-0.518;2023-02-18T07:47:04;100959.88;;;15.30;48.64
39435;BME280;66825;51.880;-0.518;2023-02-18T07:49:31;100985.41;;;15.49;48.62
39435;BME280;66825;51.880;-0.518;2023-02-18T07:51:56;100976.44;;;15.49;48.59
39435;BME280;66825;51.880;-0.518;2023-02-18T07:54:22;100979.41;;;15.47;48.59
39435;BME280;66825;51.880;-0.518;2023-02-18T07:56:48;100945.78;;;15.38;48.70
39435;BME280;66825;51.880;-0.518;2023-02-18T07:59:14;100957.69;;;15.47;48.73
39435;BME280;66825;51.880;-0.518;2023-02-18T08:01:40;100984.84;;;15.47;48.79
39435;BME280;66825;51.880;-0.518;2023-02-18T08:04:06;100882.25;;;14.87;48.74
39435;BME280;66825;51.880;-0.518;2023-02-18T08:06:43;100979.16;;;15.38;48.67
39435;BME280;66825;51.880;-0.518;2023-02-18T08:09:10;101003.06;;;15.47;48.83
39435;BME280;66825;51.880;-0.518;2023-02-18T08:11:36;101001.41;;;15.46;48.58
39435;BME280;66825;51.880;-0.518;2023-02-18T08:14:01;101002.50;;;15.45;48.74
39435;BME280;66825;51.880;-0.518;2023-02-18T08:16:27;101003.34;;;15.45;48.70
39435;BME280;66825;51.880;-0.518;2023-02-18T08:18:53;100985.41;;;15.23;48.99
39435;BME280;66825;51.880;-0.518;2023-02-18T08:21:20;100993.53;;;15.34;48.96
39435;BME280;66825;51.880;-0.518;2023-02-18T08:23:47;100998.16;;;15.33;48.78
39435;BME280;66825;51.880;-0.518;2023-02-18T08:26:12;100998.97;;;15.44;49.07
39435;BME280;66825;51.880;-0.518;2023-02-18T08:28:38;100990.00;;;15.44;48.95
39435;BME280;66825;51.880;-0.518;2023-02-18T08:31:04;100993.56;;;15.44;48.84
39435;BME280;66825;51.880;-0.518;2023-02-18T08:33:30;101003.59;;;15.44;48.99
39435;BME280;66825;51.880;-0.518;2023-02-18T08:35:56;100986.47;;;15.33;49.23
39435;BME280;66825;51.880;-0.518;2023-02-18T08:38:22;101001.94;;;15.43;48.79
39435;BME280;66825;51.880;-0.518;2023-02-18T08:40:48;101022.59;;;15.44;49.06
39435;BME280;66825;51.880;-0.518;2023-02-18T08:43:15;100995.19;;;15.30;49.00
39435;BME280;66825;51.880;-0.518;2023-02-18T08:45:41;101000.06;;;15.33;48.75
39435;BME280;66825;51.880;-0.518;2023-02-18T08:48:08;100924.59;;;14.83;48.85
39435;BME280;66825;51.880;-0.518;2023-02-18T08:50:34;101001.97;;;15.32;48.75
39435;BME280;66825;51.880;-0.518;2023-02-18T08:53:00;101006.03;;;15.35;48.95
39435;BME280;66825;51.880;-0.518;2023-02-18T08:55:29;101026.66;;;15.41;48.89
39435;BME280;66825;51.880;-0.518;2023-02-18T08:57:54;101031.28;;;15.40;48.81
39435;BME280;66825;51.880;-0.518;2023-02-18T09:00:20;101038.38;;;15.42;48.86
39435;BME280;66825;51.880;-0.518;2023-02-18T09:02:46;101029.41;;;15.31;48.96
39435;BME280;66825;51.880;-0.518;2023-02-18T09:05:12;101058.44;;;15.40;49.09
39435;BME280;66825;51.880;-0.518;2023-02-18T09:07:38;100970.16;;;14.81;48.85
39435;BME280;66825;51.880;-0.518;2023-02-18T09:10:05;101066.03;;;15.38;49.01
39435;BME280;66825;51.880;-0.518;2023-02-18T09:12:30;101053.25;;;15.39;48.80
39435;BME280;66825;51.880;-0.518;2023-02-18T09:14:56;100949.81;;;14.68;48.92
39435;BME280;66825;51.880;-0.518;2023-02-18T09:17:22;101053.81;;;15.36;49.17
39435;BME280;66825;51.880;-0.518;2023-02-18T09:19:47;100933.75;;;14.56;48.95
39435;BME280;66825;51.880;-0.518;2023-02-18T09:22:13;101059.53;;;15.39;48.94
39435;BME280;66825;51.880;-0.518;2023-02-18T09:24:39;101050.56;;;15.39;48.92
39435;BME280;66825;51.880;-0.518;2023-02-18T09:27:05;101077.69;;;15.39;49.07
39435;BME280;66825;51.880;-0.518;2023-02-18T09:29:32;101061.41;;;15.39;49.17
39435;BME280;66825;51.880;-0.518;2023-02-18T09:32:01;101050.84;;;15.37;49.18
39435;BME280;66825;51.880;-0.518;2023-02-18T09:34:27;101063.31;;;15.38;48.73
39435;BME280;66825;51.880;-0.518;2023-02-18T09:36:53;101071.47;;;15.38;49.36
39435;BME280;66825;51.880;-0.518;2023-02-18T09:39:19;101066.03;;;15.38;49.37
39435;BME280;66825;51.880;-0.518;2023-02-18T09:41:47;100964.97;;;14.69;49.14
39435;BME280;66825;51.880;-0.518;2023-02-18T09:44:22;101076.09;;;15.38;48.94
39435;BME280;66825;51.880;-0.518;2023-02-18T09:47:02;101086.97;;;15.38;49.37
39435;BME280;66825;51.880;-0.518;2023-02-18T09:49:32;101055.41;;;15.11;49.21
39435;BME280;66825;51.880;-0.518;2023-02-18T09:52:31;101082.63;;;15.37;49.29
39435;BME280;66825;51.880;-0.518;2023-02-18T09:54:57;101105.13;;;15.37;49.36
39435;BME280;66825;51.880;-0.518;2023-02-18T09:57:29;101112.47;;;15.37;49.43
39435;BME280;66825;51.880;-0.518;2023-02-18T10:00:04;101099.97;;;15.36;49.42
39435;BME280;66825;51.880;-0.518;2023-02-18T10:02:30;101010.31;;;14.79;49.10
39435;BME280;66825;51.880;-0.518;2023-02-18T10:04:57;101094.56;;;15.36;49.23
39435;BME280;66825;51.880;-0.518;2023-02-18T10:07:26;101104.56;;;15.35;49.14
39435;BME280;66825;51.880;-0.518;2023-02-18T10:09:54;101096.44;;;15.35;49.35
39435;BME280;66825;51.880;-0.518;2023-02-18T10:12:23;101089.13;;;15.36;49.16
39435;BME280;66825;51.880;-0.518;2023-02-18T10:14:53;101099.97;;;15.36;49.28
39435;BME280;66825;51.880;-0.518;2023-02-18T10:17:20;101099.97;;;15.36;49.67
39435;BME280;66825;51.880;-0.518;2023-02-18T10:19:48;101105.41;;;15.36;49.20
39435;BME280;66825;51.880;-0.518;2023-02-18T10:22:15;101099.97;;;15.36;49.34
39435;BME280;66825;51.880;-0.518;2023-02-18T10:24:49;101091.00;;;15.35;49.16
39435;BME280;66825;51.880;-0.518;2023-02-18T10:27:28;101099.16;;;15.35;49.28
39435;BME280;66825;51.880;-0.518;2023-02-18T10:32:42;101083.13;;;15.29;49.14
39435;BME280;66825;51.880;-0.518;2023-02-18T10:38:12;101104.84;;;15.34;49.43
39435;BME280;66825;51.880;-0.518;2023-02-18T10:50:59;101092.34;;;15.33;49.47
39435;BME280;66825;51.880;-0.518;2023-02-18T10:53:36;101095.91;;;15.33;49.49
39435;BME280;66825;51.880;-0.518;2023-02-18T10:56:04;101086.91;;;15.17;49.81
39435;BME280;66825;51.880;-0.518;2023-02-18T10:58:36;101093.16;;;15.23;49.59
39435;BME280;66825;51.880;-0.518;2023-02-18T11:01:15;101090.16;;;15.14;49.38
39435;BME280;66825;51.880;-0.518;2023-02-18T11:03:48;101109.72;;;15.32;49.71
39435;BME280;66825;51.880;-0.518;2023-02-18T11:06:44;101103.50;;;15.31;49.74
39435;BME280;66825;51.880;-0.518;2023-02-18T11:09:37;101093.44;;;15.32;49.89
39435;BME280;66825;51.880;-0.518;2023-02-18T11:12:11;101102.41;;;15.32;49.65
39435;BME280;66825;51.880;-0.518;2023-02-18T11:14:46;101099.69;;;15.32;49.38
39435;BME280;66825;51.880;-0.518;2023-02-18T11:19:51;101116.28;;;15.31;49.70
39435;BME280;66825;51.880;-0.518;2023-02-18T11:22:19;101118.16;;;15.30;49.53
39435;BME280;66825;51.880;-0.518;2023-02-18T11:24:46;101130.66;;;15.31;49.15
39435;BME280;66825;51.880;-0.518;2023-02-18T11:30:04;101129.00;;;15.30;49.62
39435;BME280;66825;51.880;-0.518;2023-02-18T11:32:33;101115.44;;;15.30;49.73
39435;BME280;66825;51.880;-0.518;2023-02-18T11:35:00;101082.81;;;15.09;49.72
39435;BME280;66825;51.880;-0.518;2023-02-18T11:37:26;101118.16;;;15.30;49.54
39435;BME280;66825;51.880;-0.518;2023-02-18T11:39:53;101125.50;;;15.30;49.72
39435;BME280;66825;51.880;-0.518;2023-02-18T11:42:22;101050.47;;;14.87;49.65
39435;BME280;66825;51.880;-0.518;2023-02-18T11:44:55;101109.19;;;15.30;49.46
39435;BME280;66825;51.880;-0.518;2023-02-18T11:47:25;101122.78;;;15.30;49.88
39435;BME280;66825;51.880;-0.518;2023-02-18T11:52:38;101105.66;;;15.29;49.64
39435;BME280;66825;51.880;-0.518;2023-02-18T11:55:18;101116.50;;;15.29;49.62
39435;BME280;66825;51.880;-0.518;2023-02-18T12:00:19;101101.31;;;15.28;49.73
39435;BME280;66825;51.880;-0.518;2023-02-18T12:02:46;101114.06;;;15.28;49.83
39435;BME280;66825;51.880;-0.518;2023-02-18T12:05:17;101096.44;;;15.25;49.69
39435;BME280;66825;51.880;-0.518;2023-02-18T12:07:47;101110.28;;;15.29;49.79
39435;BME280;66825;51.880;-0.518;2023-02-18T12:12:59;101018.69;;;14.67;49.64
39435;BME280;66825;51.880;-0.518;2023-02-18T12:27:00;101108.66;;;15.28;49.81
39435;BME280;66825;51.880;-0.518;2023-02-18T12:29:35;101107.84;;;15.27;49.56
39435;BME280;66825;51.880;-0.518;2023-02-18T13:02:52;101064.94;;;15.24;49.93
39435;BME280;66825;51.880;-0.518;2023-02-18T13:05:40;101073.88;;;15.24;49.88
39435;BME280;66825;51.880;-0.518;2023-02-18T13:11:35;101059.50;;;15.24;50.13
39435;BME280;66825;51.880;-0.518;2023-02-18T13:14:13;101064.13;;;15.23;50.19
39435;BME280;66825;51.880;-0.518;2023-02-18T13:16:43;101075.00;;;15.23;50.23
39435;BME280;66825;51.880;-0.518;2023-02-18T13:19:23;101072.28;;;15.23;50.44
39435;BME280;66825;51.880;-0.518;2023-02-18T13:21:53;101058.69;;;15.18;50.07
39435;BME280;66825;51.880;-0.518;2023-02-18T13:26:57;101056.00;;;15.23;49.91
39435;BME280;66825;51.880;-0.518;2023-02-18T13:29:34;101051.63;;;15.17;50.09
39435;BME280;66825;51.880;-0.518;2023-02-18T13:32:21;101073.09;;;15.24;50.12
39435;BME280;66825;51.880;-0.518;2023-02-18T13:35:07;101050.56;;;15.23;50.10
39435;BME280;66825;51.880;-0.518;2023-02-18T13:40:30;101041.59;;;15.23;50.06
39435;BME280;66825;51.880;-0.518;2023-02-18T13:46:18;101046.22;;;15.22;50.46
39435;BME280;66825;51.880;-0.518;2023-02-18T13:48:50;101038.06;;;15.22;50.03
39435;BME280;66825;51.880;-0.518;2023-02-18T13:51:27;101039.94;;;15.22;50.36
39435;BME280;66825;51.880;-0.518;2023-02-18T13:54:44;101038.88;;;15.23;50.45
39435;BME280;66825;51.880;-0.518;2023-02-18T13:57:01;101035.34;;;15.22;50.60
39435;BME280;66825;51.880;-0.518;2023-02-18T14:07:31;101020.69;;;15.18;50.50
39435;BME280;66825;51.880;-0.518;2023-02-18T14:18:07;101012.00;;;15.21;50.06
39435;BME280;66825;51.880;-0.518;2023-02-18T14:33:39;101016.59;;;15.21;50.38
39435;BME280;66825;51.880;-0.518;2023-02-18T14:36:21;101007.38;;;15.22;50.12
39435;BME280;66825;51.880;-0.518;2023-02-18T14:42:50;100993.00;;;15.21;50.54
39435;BME280;66825;51.880;-0.518;2023-02-18T14:50:35;100904.72;;;14.62;50.17
39435;BME280;66825;51.880;-0.518;2023-02-18T14:53:07;101000.59;;;15.19;50.50
39435;BME280;66825;51.880;-0.518;2023-02-18T14:55:40;100994.09;;;15.20;50.37
39435;BME280;66825;51.880;-0.518;2023-02-18T14:58:26;100998.72;;;15.20;50.45
39435;BME280;66825;51.880;-0.518;2023-02-18T15:00:53;100990.00;;;15.18;50.60
39435;BME280;66825;51.880;-0.518;2023-02-18T15:03:20;100986.22;;;15.19;50.39
39435;BME280;66825;51.880;-0.518;2023-02-18T15:05:50;100971.53;;;15.15;50.56
39435;BME280;66825;51.880;-0.518;2023-02-18T15:08:18;100976.69;;;15.16;50.60
39435;BME280;66825;51.880;-0.518;2023-02-18T15:10:54;100980.78;;;15.19;50.27
39435;BME280;66825;51.880;-0.518;2023-02-18T15:13:28;100985.13;;;15.20;50.45
39435;BME280;66825;51.880;-0.518;2023-02-18T15:16:00;100981.03;;;15.12;50.35
39435;BME280;66825;51.880;-0.518;2023-02-18T15:18:35;100978.31;;;15.17;50.64
39435;BME280;66825;51.880;-0.518;2023-02-18T15:21:04;100950.66;;;15.05;50.33
39435;BME280;66825;51.880;-0.518;2023-02-18T15:23:33;100963.69;;;15.18;50.33
39435;BME280;66825;51.880;-0.518;2023-02-18T15:25:59;100956.06;;;15.10;50.25